• Join FlightAware (Why Join?)
  • Login
  • US Flag 
03:16AM EDT


 

Airport Tracker/Info


-or-


 

Live Flight TrackerFlight Track Log ✈ UPS1143 ✈ 10-Jan-2014 ✈ KBUF - KSDF

Flight Track Log - Related Links

Times and Time Zones

All times are in EST time to prevent confusion due to time zone crossing. See the UPS1143 flight status page for this flight to view local times or setup timezone preferences in your user account.

Time Position Orientation Groundspeed Altitude Reporting Facility
EST Latitude Longitude Course Direction KTS MPH feet Rate Location/Type
11:45PM 42.3162 -79.7465 228° Southwest  Level Estimated
11:45PM 42.3432 -79.4185 228° Southwest 403 464 30,700  Level FlightAware ADS-B (CYHM)
11:47PM 42.1716 -79.7056 231° Southwest 391 450 32,000 360 Climbing FlightAware ADS-B (CYKF)
11:48PM 42.1037 -79.8224 232° Southwest 394 453 32,000  Level FlightAware ADS-B (CYKF)
11:49PM 42.0509 -79.9128 232° Southwest 395 455 32,100  Climbing FlightAware ADS-B (CYKF)
11:50PM 41.9621 -80.0642 232° Southwest 392 451 32,000 -60 Descending FlightAware ADS-B (CYKF)
11:51PM 41.8822 -80.1969 232° Southwest 392 451 32,000  Level Cleveland Center
11:52PM 41.8150 -80.3131 232° Southwest 392 451 32,000  Level Cleveland Center
11:53PM 41.7450 -80.4272 231° Southwest 394 453 32,000  Level Cleveland Center
11:54PM 41.6772 -80.5419 232° Southwest 390 449 32,000  Level Cleveland Center
11:55PM 41.6089 -80.6561 231° Southwest 390 449 32,000  Level Cleveland Center
11:56PM 41.5397 -80.7717 231° Southwest 394 453 32,000  Level Cleveland Center
11:58PM 41.4708 -80.8858 231° Southwest 392 451 32,000  Level Cleveland Center
11:59PM 41.4025 -80.9997 231° Southwest 390 449 32,000  Level Cleveland Center
12:00AM 41.3333 -81.1142 231° Southwest 391 450 32,000  Level Cleveland Center
12:01AM 41.2639 -81.2283 231° Southwest 392 451 32,000  Level Cleveland Center
12:02AM 41.1947 -81.3414 231° Southwest 390 449 32,000  Level Cleveland Center
12:03AM 41.1253 -81.4564 231° Southwest 392 451 32,000  Level Cleveland Center
12:04AM 41.0575 -81.5661 231° Southwest 381 438 32,000  Level Cleveland Center
12:05AM 40.9903 -81.6739 230° Southwest 374 430 32,000  Level Cleveland Center
12:06AM 40.9239 -81.7811 231° Southwest 372 428 32,000  Level Cleveland Center
12:07AM 40.8578 -81.8861 230° Southwest 368 423 32,000  Level Cleveland Center
12:08AM 40.7917 -81.9917 230° Southwest 368 423 32,000  Level Cleveland Center
12:14AM 40.8960 -81.8250 230° Southwest 365 420 32,000  Level FlightAware ADS-B
12:15AM 40.3500 -82.6900 230° Southwest 354 407 32,000  Level Indianapolis Center
12:16AM 40.2850 -82.7886 229° Southwest 352 405 32,000  Level Indianapolis Center
12:17AM 40.2167 -82.8969 230° Southwest 353 406 32,000  Level Indianapolis Center
12:18AM 40.1531 -82.9942 229° Southwest 352 405 32,000  Level Indianapolis Center
12:19AM 40.0908 -83.0906 230° Southwest 349 402 32,000  Level Indianapolis Center
12:20AM 40.0272 -83.1878 230° Southwest 350 403 32,000 -360 Level Indianapolis Center
12:25AM 39.6817 -83.7144 230° Southwest 364 419 30,000 -360 Descending FlightAware ADS-B (KPMH)
12:26AM 39.6344 -83.7857 229° Southwest 364 419 30,000 -540 Level FlightAware ADS-B (KPMH)
12:31AM 39.3501 -84.2109 229° Southwest 291 335 26,900 -720 Descending FlightAware ADS-B (KBRY)
12:34AM 39.1119 -84.3706 207° Southwest 293 337 24,000 -660 Descending FlightAware ADS-B (KBRY)
12:35AM 39.0817 -84.3848 200° South 290 334 24,000 -1,260 Level FlightAware ADS-B (KBRY)
12:38AM 38.8441 -84.4928 199° South 258 297 19,700 -1,320 Descending FlightAware ADS-B (KPMH)
12:39AM 38.8336 -84.4975 199° South 242 278 19,100 -900 Descending FlightAware ADS-B (KCVG)
12:39AM 38.7589 -84.5816 221° Southwest 236 272 18,200 -2,160 Descending FlightAware ADS-B (KBRY)
12:40AM 38.7423 -84.6212 242° Southwest 238 274 16,800 -2,700 Descending FlightAware ADS-B (KCVG)
12:41AM 38.7209 -84.6733 242° Southwest 235 270 14,900 -2,700 Descending FlightAware ADS-B (KCVG)
12:41AM 38.7011 -84.7148 239° Southwest 234 269 13,200 -2,460 Descending FlightAware ADS-B (KCVG)
12:43AM 38.6565 -84.7962 235° Southwest 223 257 10,500 -1,740 Descending FlightAware ADS-B (KBRY)
12:43AM 38.6565 -84.7962 235° Southwest 222 255 10,200 -180 Descending FlightAware ADS-B (KBRY)
12:44AM 38.5550 -84.8691 209° Southwest 224 258 10,200  Level FlightAware ADS-B (KBRY)
12:46AM 38.4906 -84.9051 204° Southwest 228 262 10,200  Level FlightAware ADS-B (KBRY)
12:46AM 38.4337 -84.9366 203° Southwest 223 257 10,200  Level FlightAware ADS-B (KBRY)
12:47AM 38.3798 -84.9662 203° Southwest 225 259 10,200  Level FlightAware ADS-B (KBRY)
12:49AM 38.3156 -85.0007 203° Southwest 221 254 10,200  Level FlightAware ADS-B (KBRY)
12:50AM 38.2643 -85.0275 202° Southwest 225 259 10,200  Level FlightAware ADS-B (KBRY)
12:51AM 38.2018 -85.0594 202° Southwest 220 253 10,200  Level FlightAware ADS-B (KBRY)
12:52AM 38.1653 -85.1183 232° Southwest 224 258 10,200 -60 Level FlightAware ADS-B (KBRY)
12:53AM 38.1372 -85.1871 243° Southwest 228 262 10,100 -540 Descending FlightAware ADS-B (KBRY)
12:54AM 38.1075 -85.2575 242° Southwest 221 254 9,200 -960 Descending FlightAware ADS-B (KBRY)
12:55AM 38.0777 -85.3276 242° Southwest 218 251 8,200 -840 Descending FlightAware ADS-B (KBRY)
12:56AM 38.0618 -85.3956 253° West 213 245 7,600 -600 Descending FlightAware ADS-B (KBRY)
12:57AM 38.0737 -85.4660 282° West 194 223 7,100 -480 Descending FlightAware ADS-B (KBRY)
12:58AM 38.0909 -85.5294 289° West 189 217 6,700 -420 Descending FlightAware ADS-B (KBRY)
12:59AM 38.1076 -85.5896 289° West 178 205 6,300 -600 Descending FlightAware ADS-B (KBRY)
01:00AM 38.1627 -85.6080 345° North 217 250 5,500 -600 Descending FlightAware ADS-B (KBRY)
01:00AM 38.2149 -85.6198 350° North 212 244 5,200 -180 Descending FlightAware ADS-B (KBRY)
01:02AM 38.2796 -85.6340 350° North 213 245 5,200  Level FlightAware ADS-B (KBRY)
01:03AM 38.3386 -85.6464 351° North 216 249 5,200  Level FlightAware ADS-B (KBRY)
01:04AM 38.3979 -85.6600 350° North 216 249 5,200  Level FlightAware ADS-B (KBRY)
01:04AM 38.4482 -85.6716 350° North 214 246 5,200 -420 Level FlightAware ADS-B (KBRY)
01:05AM 38.5093 -85.6863 349° North 213 245 4,500 -600 Descending FlightAware ADS-B (KBRY)
01:06AM 38.5322 -85.7190 312° West 147 169 4,200 -240 Descending FlightAware ADS-B (KBRY)
01:07AM 38.5252 -85.7625 258° West 141 162 4,200  Level FlightAware ADS-B (KBRY)
01:09AM 38.4703 -85.8038 210° Southwest 162 186 4,200 -120 Level FlightAware ADS-B (KBRY)
01:09AM 38.4528 -85.8108 210° Southwest 144 166 4,000 -180 Descending Indianapolis Center
01:10AM 38.4064 -85.8083 178° South 152 175 4,000  Level Indianapolis Center
01:11AM 38.3614 -85.7917 164° South 160 184 4,000 -360 Level Indianapolis Center
01:12AM 38.3178 -85.7764 165° South 162 186 3,300 -720 Descending Indianapolis Center
01:13AM 38.2836 -85.7647 165° South 161 185 2,600 -720 Descending Indianapolis Center